Time;durP1;ratioP1;P1;durP2;ratioP2;P2;SDS_P1;SDS_P2;PMS_P1;PMS_P2;Temp;Humidity;BMP_temperature;BMP_pressure;BME280_temperature;BME280_humidity;BME280_pressure;Samples;Min_cycle;Max_cycle;Signal;HPM_P1;HPM_P2
2022/02/08 00:00:38;;;;;;;3.950001;2.3;;;;;;;-0.21;100;96508.2;;;;
2022/02/08 00:01:45;;;;;;;5.55;2.1;;;;;;;-0.39;100;96518.67;;;;
2022/02/08 00:02:50;;;;;;;5.55;2.1;;;;;;;-0.39;100;96518.67;;;;
2022/02/08 00:03:51;;;;;;;5.55;2.1;;;;;;;-0.39;100;96518.67;;;;
2022/02/08 00:04:51;;;;;;;5.55;2.1;;;;;;;-0.39;100;96518.67;;;;
2022/02/08 00:06:03;;;;;;;5.55;2.1;;;;;;;-0.39;100;96518.67;;;;
2022/02/08 00:07:06;;;;;;;5.55;2.1;;;;;;;-0.39;100;96518.67;;;;
2022/02/08 00:08:07;;;;;;;5.55;2.1;;;;;;;-0.39;100;96518.67;;;;
2022/02/08 00:09:07;;;;;;;5.55;2.1;;;;;;;-0.39;100;96518.67;;;;
2022/02/08 00:10:08;;;;;;;5.55;2.1;;;;;;;-0.39;100;96518.67;;;;
2022/02/08 00:11:09;;;;;;;5.55;2.1;;;;;;;-0.39;100;96518.67;;;;
2022/02/08 00:12:10;;;;;;;3.85;2;;;;;;;-0.44;100;96514.76;;;;
2022/02/08 00:13:11;;;;;;;3.85;2;;;;;;;-0.44;100;96514.76;;;;
2022/02/08 00:14:11;;;;;;;3.85;2;;;;;;;-0.44;100;96514.76;;;;
2022/02/08 00:15:12;;;;;;;3.85;2;;;;;;;-0.44;100;96514.76;;;;
2022/02/08 00:16:13;;;;;;;3.85;2;;;;;;;-0.44;100;96514.76;;;;
2022/02/08 00:17:13;;;;;;;3.85;2;;;;;;;-0.44;100;96514.76;;;;
2022/02/08 00:18:14;;;;;;;3.85;2;;;;;;;-0.44;100;96514.76;;;;
2022/02/08 00:19:15;;;;;;;3.85;2;;;;;;;-0.44;100;96514.76;;;;
2022/02/08 00:20:15;;;;;;;3.85;2;;;;;;;-0.44;100;96514.76;;;;
2022/02/08 00:21:16;;;;;;;3.85;2;;;;;;;-0.44;100;96514.76;;;;
2022/02/08 00:22:16;;;;;;;4.850001;2;;;;;;;-0.52;100;96514.54;;;;
2022/02/08 00:23:17;;;;;;;4.850001;2;;;;;;;-0.52;100;96514.54;;;;
2022/02/08 00:24:17;;;;;;;4.850001;2;;;;;;;-0.52;100;96514.54;;;;
2022/02/08 00:25:18;;;;;;;4.850001;2;;;;;;;-0.52;100;96514.54;;;;
2022/02/08 00:26:18;;;;;;;4.850001;2;;;;;;;-0.52;100;96514.54;;;;
2022/02/08 00:27:19;;;;;;;4.850001;2;;;;;;;-0.52;100;96514.54;;;;
2022/02/08 00:28:19;;;;;;;4.850001;2;;;;;;;-0.52;100;96514.54;;;;
2022/02/08 00:29:21;;;;;;;4.850001;2;;;;;;;-0.52;100;96514.54;;;;
2022/02/08 00:30:22;;;;;;;4.850001;2;;;;;;;-0.52;100;96514.54;;;;
2022/02/08 00:31:22;;;;;;;4.850001;2;;;;;;;-0.52;100;96514.54;;;;
2022/02/08 00:32:23;;;;;;;4.850001;2;;;;;;;-0.52;100;96514.54;;;;
2022/02/08 00:33:24;;;;;;;5.550001;2.05;;;;;;;-0.69;100;96519.7;;;;
2022/02/08 00:34:25;;;;;;;5.550001;2.05;;;;;;;-0.69;100;96519.7;;;;
2022/02/08 00:35:25;;;;;;;5.550001;2.05;;;;;;;-0.69;100;96519.7;;;;
2022/02/08 00:36:26;;;;;;;5.550001;2.05;;;;;;;-0.69;100;96519.7;;;;
2022/02/08 00:37:26;;;;;;;5.550001;2.05;;;;;;;-0.69;100;96519.7;;;;
2022/02/08 00:38:27;;;;;;;5.550001;2.05;;;;;;;-0.69;100;96519.7;;;;
2022/02/08 00:39:30;;;;;;;5.550001;2.05;;;;;;;-0.69;100;96519.7;;;;
2022/02/08 00:40:30;;;;;;;5.550001;2.05;;;;;;;-0.69;100;96519.7;;;;
2022/02/08 00:41:31;;;;;;;5.550001;2.05;;;;;;;-0.69;100;96519.7;;;;
2022/02/08 00:42:33;;;;;;;5.550001;2.05;;;;;;;-0.69;100;96519.7;;;;
2022/02/08 00:43:38;;;;;;;4.6;2.2;;;;;;;-0.87;100;96513.33;;;;
2022/02/08 00:44:43;;;;;;;4.6;2.2;;;;;;;-0.87;100;96513.33;;;;
2022/02/08 00:45:51;;;;;;;4.6;2.2;;;;;;;-0.87;100;96513.33;;;;
2022/02/08 00:46:59;;;;;;;4.6;2.2;;;;;;;-0.87;100;96513.33;;;;
2022/02/08 00:48:11;;;;;;;4.6;2.2;;;;;;;-0.87;100;96513.33;;;;
2022/02/08 00:49:12;;;;;;;4.6;2.2;;;;;;;-0.87;100;96513.33;;;;
2022/02/08 00:50:13;;;;;;;4.6;2.2;;;;;;;-0.87;100;96513.33;;;;
2022/02/08 00:51:14;;;;;;;4.6;2.2;;;;;;;-0.87;100;96513.33;;;;
2022/02/08 00:52:15;;;;;;;4.6;2.2;;;;;;;-0.87;100;96513.33;;;;
2022/02/08 00:53:16;;;;;;;4.6;2.2;;;;;;;-0.87;100;96513.33;;;;
2022/02/08 00:54:17;;;;;;;7.55;2;;;;;;;-1.03;100;96515.23;;;;
2022/02/08 00:55:18;;;;;;;7.55;2;;;;;;;-1.03;100;96515.23;;;;
2022/02/08 00:56:18;;;;;;;7.55;2;;;;;;;-1.03;100;96515.23;;;;
2022/02/08 00:57:19;;;;;;;7.55;2;;;;;;;-1.03;100;96515.23;;;;
2022/02/08 00:58:20;;;;;;;7.55;2;;;;;;;-1.03;100;96515.23;;;;
2022/02/08 00:59:20;;;;;;;7.55;2;;;;;;;-1.03;100;96515.23;;;;
2022/02/08 01:00:22;;;;;;;7.55;2;;;;;;;-1.03;100;96515.23;;;;
2022/02/08 01:01:23;;;;;;;7.55;2;;;;;;;-1.03;100;96515.23;;;;
2022/02/08 01:02:23;;;;;;;7.55;2;;;;;;;-1.03;100;96515.23;;;;
2022/02/08 01:03:24;;;;;;;7.55;2;;;;;;;-1.03;100;96515.23;;;;
2022/02/08 01:04:26;;;;;;;7.55;2;;;;;;;-1.03;100;96515.23;;;;
2022/02/08 01:05:26;;;;;;;3.9;1.95;;;;;;;-1.18;100;96522.71;;;;
2022/02/08 01:06:28;;;;;;;3.9;1.95;;;;;;;-1.18;100;96522.71;;;;
2022/02/08 01:07:28;;;;;;;3.9;1.95;;;;;;;-1.18;100;96522.71;;;;
2022/02/08 01:08:31;;;;;;;3.9;1.95;;;;;;;-1.18;100;96522.71;;;;
2022/02/08 01:09:44;;;;;;;3.9;1.95;;;;;;;-1.18;100;96522.71;;;;
2022/02/08 01:10:45;;;;;;;3.9;1.95;;;;;;;-1.18;100;96522.71;;;;
2022/02/08 01:11:50;;;;;;;3.9;1.95;;;;;;;-1.18;100;96522.71;;;;
2022/02/08 01:12:50;;;;;;;3.9;1.95;;;;;;;-1.18;100;96522.71;;;;
2022/02/08 01:13:51;;;;;;;3.9;1.95;;;;;;;-1.18;100;96522.71;;;;
2022/02/08 01:14:53;;;;;;;0;0;;;;;;;0;0;0;;;;
2022/02/08 01:15:54;;;;;;;0;0;;;;;;;0;0;0;;;;
2022/02/08 01:16:55;;;;;;;0;0;;;;;;;0;0;0;;;;
2022/02/08 01:17:58;;;;;;;0;0;;;;;;;0;0;0;;;;
2022/02/08 01:19:00;;;;;;;0;0;;;;;;;0;0;0;;;;
2022/02/08 01:20:06;;;;;;;0;0;;;;;;;0;0;0;;;;
2022/02/08 01:21:08;;;;;;;0;0;;;;;;;0;0;0;;;;
2022/02/08 01:22:08;;;;;;;0;0;;;;;;;0;0;0;;;;
2022/02/08 01:23:09;;;;;;;0;0;;;;;;;0;0;0;;;;
2022/02/08 01:24:11;;;;;;;0;0;;;;;;;0;0;0;;;;
2022/02/08 01:25:16;;;;;;;0;0;;;;;;;0;0;0;;;;
2022/02/08 01:26:18;;;;;;;0;0;;;;;;;0;0;0;;;;
2022/02/08 01:27:23;;;;;;;0;0;;;;;;;0;0;0;;;;
2022/02/08 01:28:32;;;;;;;0;0;;;;;;;0;0;0;;;;
2022/02/08 01:29:40;;;;;;;0;0;;;;;;;0;0;0;;;;
2022/02/08 01:30:47;;;;;;;0;0;;;;;;;0;0;0;;;;
2022/02/08 01:31:49;;;;;;;0;0;;;;;;;0;0;0;;;;
2022/02/08 01:33:11;;;;;;;0;0;;;;;;;0;0;0;;;;
2022/02/08 01:34:28;;;;;;;0;0;;;;;;;0;0;0;;;;
2022/02/08 01:35:45;;;;;;;0;0;;;;;;;0;0;0;;;;
2022/02/08 01:37:01;;;;;;;0;0;;;;;;;0;0;0;;;;
2022/02/08 01:38:08;;;;;;;0;0;;;;;;;0;0;0;;;;
2022/02/08 01:39:15;;;;;;;0;0;;;;;;;0;0;0;;;;
2022/02/08 01:40:24;;;;;;;0;0;;;;;;;0;0;0;;;;
2022/02/08 01:41:37;;;;;;;0;0;;;;;;;0;0;0;;;;
2022/02/08 01:42:45;;;;;;;0;0;;;;;;;0;0;0;;;;
2022/02/08 01:44:10;;;;;;;0;0;;;;;;;0;0;0;;;;
2022/02/08 01:45:37;;;;;;;0;0;;;;;;;0;0;0;;;;
2022/02/08 01:46:52;;;;;;;0;0;;;;;;;0;0;0;;;;
2022/02/08 01:48:04;;;;;;;0;0;;;;;;;0;0;0;;;;
2022/02/08 01:49:14;;;;;;;0;0;;;;;;;0;0;0;;;;
2022/02/08 01:50:16;;;;;;;0;0;;;;;;;0;0;0;;;;
2022/02/08 01:51:17;;;;;;;0;0;;;;;;;0;0;0;;;;
2022/02/08 01:52:19;;;;;;;0;0;;;;;;;0;0;0;;;;
2022/02/08 01:53:20;;;;;;;0;0;;;;;;;0;0;0;;;;
2022/02/08 01:54:22;;;;;;;0;0;;;;;;;0;0;0;;;;
2022/02/08 01:55:23;;;;;;;0;0;;;;;;;0;0;0;;;;
2022/02/08 01:56:23;;;;;;;0;0;;;;;;;0;0;0;;;;
2022/02/08 01:57:24;;;;;;;0;0;;;;;;;0;0;0;;;;
2022/02/08 01:58:24;;;;;;;0;0;;;;;;;0;0;0;;;;
2022/02/08 01:59:25;;;;;;;0;0;;;;;;;0;0;0;;;;
2022/02/08 02:00:27;;;;;;;0;0;;;;;;;0;0;0;;;;
2022/02/08 02:01:29;;;;;;;0;0;;;;;;;0;0;0;;;;
2022/02/08 02:02:29;;;;;;;0;0;;;;;;;0;0;0;;;;
2022/02/08 02:03:29;;;;;;;0;0;;;;;;;0;0;0;;;;
2022/02/08 02:04:30;;;;;;;0;0;;;;;;;0;0;0;;;;
2022/02/08 02:05:31;;;;;;;0;0;;;;;;;0;0;0;;;;
2022/02/08 02:06:31;;;;;;;0;0;;;;;;;0;0;0;;;;
2022/02/08 02:07:32;;;;;;;0;0;;;;;;;0;0;0;;;;
2022/02/08 02:08:34;;;;;;;0;0;;;;;;;0;0;0;;;;
2022/02/08 02:09:34;;;;;;;0;0;;;;;;;0;0;0;;;;
2022/02/08 02:10:36;;;;;;;0;0;;;;;;;0;0;0;;;;
2022/02/08 02:11:36;;;;;;;0;0;;;;;;;0;0;0;;;;
2022/02/08 02:12:38;;;;;;;0;0;;;;;;;0;0;0;;;;
2022/02/08 02:13:50;;;;;;;0;0;;;;;;;0;0;0;;;;
2022/02/08 02:14:51;;;;;;;0;0;;;;;;;0;0;0;;;;
2022/02/08 02:15:51;;;;;;;4.5;1.55;;;;;;;-1.7;100;96533.95;;;;
2022/02/08 02:16:57;;;;;;;4.5;1.55;;;;;;;-1.7;100;96533.95;;;;
2022/02/08 02:17:57;;;;;;;4.5;1.55;;;;;;;-1.7;100;96533.95;;;;
2022/02/08 02:18:58;;;;;;;4.5;1.55;;;;;;;-1.7;100;96533.95;;;;
2022/02/08 02:19:58;;;;;;;4.5;1.55;;;;;;;-1.7;100;96533.95;;;;
2022/02/08 02:20:59;;;;;;;4.5;1.55;;;;;;;-1.7;100;96533.95;;;;
2022/02/08 02:22:00;;;;;;;4.5;1.55;;;;;;;-1.7;100;96533.95;;;;
2022/02/08 02:23:02;;;;;;;4.5;1.55;;;;;;;-1.7;100;96533.95;;;;
2022/02/08 02:24:03;;;;;;;4.5;1.55;;;;;;;-1.7;100;96533.95;;;;
2022/02/08 02:25:04;;;;;;;4.5;1.55;;;;;;;-1.7;100;96533.95;;;;
2022/02/08 02:26:06;;;;;;;0;0;;;;;;;0;0;0;;;;
2022/02/08 02:27:06;;;;;;;0;0;;;;;;;0;0;0;;;;
2022/02/08 02:28:07;;;;;;;0;0;;;;;;;0;0;0;;;;
2022/02/08 02:29:08;;;;;;;0;0;;;;;;;0;0;0;;;;
2022/02/08 02:30:13;;;;;;;0;0;;;;;;;0;0;0;;;;
2022/02/08 02:31:13;;;;;;;0;0;;;;;;;0;0;0;;;;
2022/02/08 02:32:16;;;;;;;0;0;;;;;;;0;0;0;;;;
2022/02/08 02:33:17;;;;;;;0;0;;;;;;;0;0;0;;;;
2022/02/08 02:34:17;;;;;;;0;0;;;;;;;0;0;0;;;;
2022/02/08 02:35:20;;;;;;;0;0;;;;;;;0;0;0;;;;
2022/02/08 02:36:20;;;;;;;0;0;;;;;;;0;0;0;;;;
2022/02/08 02:37:21;;;;;;;0;0;;;;;;;0;0;0;;;;
2022/02/08 02:38:24;;;;;;;0;0;;;;;;;0;0;0;;;;
2022/02/08 02:39:24;;;;;;;0;0;;;;;;;0;0;0;;;;
2022/02/08 02:40:29;;;;;;;0;0;;;;;;;0;0;0;;;;
2022/02/08 02:41:29;;;;;;;0;0;;;;;;;0;0;0;;;;
2022/02/08 02:42:35;;;;;;;0;0;;;;;;;0;0;0;;;;
2022/02/08 02:43:35;;;;;;;0;0;;;;;;;0;0;0;;;;
2022/02/08 02:44:36;;;;;;;0;0;;;;;;;0;0;0;;;;
2022/02/08 02:45:36;;;;;;;0;0;;;;;;;0;0;0;;;;
2022/02/08 02:46:37;;;;;;;0;0;;;;;;;0;0;0;;;;
2022/02/08 02:47:38;;;;;;;0;0;;;;;;;0;0;0;;;;
2022/02/08 02:48:39;;;;;;;0;0;;;;;;;0;0;0;;;;
2022/02/08 02:49:39;;;;;;;0;0;;;;;;;0;0;0;;;;
2022/02/08 02:50:40;;;;;;;0;0;;;;;;;0;0;0;;;;
2022/02/08 02:51:41;;;;;;;0;0;;;;;;;0;0;0;;;;
2022/02/08 02:52:42;;;;;;;0;0;;;;;;;0;0;0;;;;
2022/02/08 02:53:43;;;;;;;0;0;;;;;;;0;0;0;;;;
2022/02/08 02:54:43;;;;;;;0;0;;;;;;;0;0;0;;;;
2022/02/08 02:55:44;;;;;;;0;0;;;;;;;0;0;0;;;;
2022/02/08 02:56:44;;;;;;;0;0;;;;;;;0;0;0;;;;
2022/02/08 02:57:48;;;;;;;0;0;;;;;;;0;0;0;;;;
2022/02/08 02:58:49;;;;;;;0;0;;;;;;;0;0;0;;;;
2022/02/08 03:00:00;;;;;;;0;0;;;;;;;0;0;0;;;;
2022/02/08 03:01:16;;;;;;;0;0;;;;;;;0;0;0;;;;
2022/02/08 03:02:31;;;;;;;0;0;;;;;;;0;0;0;;;;
2022/02/08 03:03:45;;;;;;;0;0;;;;;;;0;0;0;;;;
2022/02/08 03:04:53;;;;;;;0;0;;;;;;;0;0;0;;;;
2022/02/08 03:17:21;;;;;;;0;0;;;;;;;0;0;0;;;;
2022/02/08 03:17:39;;;;;;;0;0;;;;;;;0;0;0;;;;
2022/02/08 03:18:41;;;;;;;0;0;;;;;;;0;0;0;;;;
2022/02/08 03:19:42;;;;;;;0;0;;;;;;;0;0;0;;;;
2022/02/08 03:20:42;;;;;;;0;0;;;;;;;0;0;0;;;;
2022/02/08 03:21:43;;;;;;;0;0;;;;;;;0;0;0;;;;
2022/02/08 03:22:43;;;;;;;0;0;;;;;;;0;0;0;;;;
2022/02/08 03:23:44;;;;;;;0;0;;;;;;;0;0;0;;;;
2022/02/08 03:24:44;;;;;;;0;0;;;;;;;0;0;0;;;;
2022/02/08 03:25:45;;;;;;;0;0;;;;;;;0;0;0;;;;
2022/02/08 03:26:45;;;;;;;0;0;;;;;;;0;0;0;;;;
2022/02/08 03:27:46;;;;;;;0;0;;;;;;;0;0;0;;;;
2022/02/08 03:28:46;;;;;;;0;0;;;;;;;0;0;0;;;;
2022/02/08 03:29:47;;;;;;;0;0;;;;;;;0;0;0;;;;
2022/02/08 03:30:47;;;;;;;0;0;;;;;;;0;0;0;;;;
2022/02/08 03:31:48;;;;;;;0;0;;;;;;;0;0;0;;;;
2022/02/08 03:32:48;;;;;;;0;0;;;;;;;0;0;0;;;;
2022/02/08 03:33:49;;;;;;;0;0;;;;;;;0;0;0;;;;
2022/02/08 03:34:49;;;;;;;0;0;;;;;;;0;0;0;;;;
2022/02/08 03:35:50;;;;;;;0;0;;;;;;;0;0;0;;;;
2022/02/08 03:36:52;;;;;;;0;0;;;;;;;0;0;0;;;;
2022/02/08 03:37:57;;;;;;;0;0;;;;;;;0;0;0;;;;
2022/02/08 03:39:09;;;;;;;0;0;;;;;;;0;0;0;;;;
2022/02/08 03:40:19;;;;;;;0;0;;;;;;;0;0;0;;;;
2022/02/08 03:41:19;;;;;;;0;0;;;;;;;0;0;0;;;;
2022/02/08 03:42:23;;;;;;;0;0;;;;;;;0;0;0;;;;
2022/02/08 03:43:30;;;;;;;0;0;;;;;;;0;0;0;;;;
2022/02/08 03:44:32;;;;;;;0;0;;;;;;;0;0;0;;;;
2022/02/08 03:45:32;;;;;;;0;0;;;;;;;0;0;0;;;;
2022/02/08 03:46:33;;;;;;;0;0;;;;;;;0;0;0;;;;
2022/02/08 03:47:34;;;;;;;0;0;;;;;;;0;0;0;;;;
2022/02/08 03:48:37;;;;;;;0;0;;;;;;;0;0;0;;;;
2022/02/08 03:49:39;;;;;;;0;0;;;;;;;0;0;0;;;;
2022/02/08 03:50:40;;;;;;;0;0;;;;;;;0;0;0;;;;
2022/02/08 03:51:49;;;;;;;0;0;;;;;;;0;0;0;;;;
2022/02/08 03:52:50;;;;;;;0;0;;;;;;;0;0;0;;;;
2022/02/08 03:53:50;;;;;;;0;0;;;;;;;0;0;0;;;;
2022/02/08 03:54:50;;;;;;;0;0;;;;;;;0;0;0;;;;
2022/02/08 03:55:51;;;;;;;0;0;;;;;;;0;0;0;;;;
2022/02/08 03:56:52;;;;;;;0;0;;;;;;;0;0;0;;;;
2022/02/08 03:57:52;;;;;;;0;0;;;;;;;0;0;0;;;;
2022/02/08 03:58:56;;;;;;;0;0;;;;;;;0;0;0;;;;
2022/02/08 03:59:57;;;;;;;0;0;;;;;;;0;0;0;;;;
2022/02/08 04:01:23;;;;;;;0;0;;;;;;;0;0;0;;;;
2022/02/08 04:02:37;;;;;;;0;0;;;;;;;0;0;0;;;;
2022/02/08 04:03:46;;;;;;;0;0;;;;;;;0;0;0;;;;
2022/02/08 04:04:53;;;;;;;0;0;;;;;;;0;0;0;;;;
2022/02/08 04:05:55;;;;;;;0;0;;;;;;;0;0;0;;;;
2022/02/08 04:06:57;;;;;;;0;0;;;;;;;0;0;0;;;;
2022/02/08 04:08:01;;;;;;;0;0;;;;;;;0;0;0;;;;
2022/02/08 04:09:04;;;;;;;0;0;;;;;;;0;0;0;;;;
2022/02/08 04:10:06;;;;;;;0;0;;;;;;;0;0;0;;;;
2022/02/08 04:11:08;;;;;;;0;0;;;;;;;0;0;0;;;;
2022/02/08 04:12:15;;;;;;;0;0;;;;;;;0;0;0;;;;
2022/02/08 04:13:20;;;;;;;0;0;;;;;;;0;0;0;;;;
2022/02/08 04:14:28;;;;;;;0;0;;;;;;;0;0;0;;;;
2022/02/08 04:15:40;;;;;;;0;0;;;;;;;0;0;0;;;;
2022/02/08 04:16:42;;;;;;;0;0;;;;;;;0;0;0;;;;
2022/02/08 04:17:58;;;;;;;0;0;;;;;;;0;0;0;;;;
2022/02/08 04:19:12;;;;;;;0;0;;;;;;;0;0;0;;;;
2022/02/08 04:31:24;;;;;;;0;0;;;;;;;0;0;0;;;;
2022/02/08 04:32:58;;;;;;;0;0;;;;;;;0;0;0;;;;
2022/02/08 04:34:19;;;;;;;0;0;;;;;;;0;0;0;;;;
2022/02/08 04:35:35;;;;;;;0;0;;;;;;;0;0;0;;;;
2022/02/08 04:37:45;;;;;;;0;0;;;;;;;0;0;0;;;;
2022/02/08 04:38:54;;;;;;;0;0;;;;;;;0;0;0;;;;
2022/02/08 04:40:12;;;;;;;0;0;;;;;;;0;0;0;;;;
2022/02/08 04:41:16;;;;;;;0;0;;;;;;;0;0;0;;;;
2022/02/08 04:42:22;;;;;;;0;0;;;;;;;0;0;0;;;;
2022/02/08 04:43:30;;;;;;;0;0;;;;;;;0;0;0;;;;
2022/02/08 04:44:40;;;;;;;0;0;;;;;;;0;0;0;;;;
2022/02/08 04:45:46;;;;;;;0;0;;;;;;;0;0;0;;;;
2022/02/08 04:46:52;;;;;;;0;0;;;;;;;0;0;0;;;;
2022/02/08 04:48:04;;;;;;;0;0;;;;;;;0;0;0;;;;
2022/02/08 04:49:05;;;;;;;0;0;;;;;;;0;0;0;;;;
2022/02/08 04:50:05;;;;;;;0;0;;;;;;;0;0;0;;;;
2022/02/08 04:51:15;;;;;;;0;0;;;;;;;0;0;0;;;;
2022/02/08 04:52:17;;;;;;;0;0;;;;;;;0;0;0;;;;
2022/02/08 04:53:29;;;;;;;0;0;;;;;;;0;0;0;;;;
2022/02/08 04:54:35;;;;;;;0;0;;;;;;;0;0;0;;;;
2022/02/08 04:55:45;;;;;;;0;0;;;;;;;0;0;0;;;;
2022/02/08 04:57:02;;;;;;;0;0;;;;;;;0;0;0;;;;
2022/02/08 04:58:15;;;;;;;0;0;;;;;;;0;0;0;;;;
2022/02/08 04:59:28;;;;;;;0;0;;;;;;;0;0;0;;;;
2022/02/08 05:00:34;;;;;;;0;0;;;;;;;0;0;0;;;;
2022/02/08 05:01:47;;;;;;;0;0;;;;;;;0;0;0;;;;
2022/02/08 05:29:46;;;;;;;0;0;;;;;;;0;0;0;;;;
2022/02/08 05:36:16;;;;;;;0;0;;;;;;;0;0;0;;;;
2022/02/08 05:37:35;;;;;;;0;0;;;;;;;0;0;0;;;;
2022/02/08 05:44:03;;;;;;;0;0;;;;;;;0;0;0;;;;
2022/02/08 05:45:11;;;;;;;0;0;;;;;;;0;0;0;;;;
2022/02/08 05:46:46;;;;;;;0;0;;;;;;;0;0;0;;;;
2022/02/08 05:47:49;;;;;;;0;0;;;;;;;0;0;0;;;;
2022/02/08 05:48:52;;;;;;;0;0;;;;;;;0;0;0;;;;
2022/02/08 05:50:06;;;;;;;0;0;;;;;;;0;0;0;;;;
2022/02/08 05:51:15;;;;;;;0;0;;;;;;;0;0;0;;;;
2022/02/08 05:52:32;;;;;;;0;0;;;;;;;0;0;0;;;;
2022/02/08 05:53:42;;;;;;;0;0;;;;;;;0;0;0;;;;
2022/02/08 05:54:43;;;;;;;0;0;;;;;;;0;0;0;;;;
2022/02/08 05:55:43;;;;;;;0;0;;;;;;;0;0;0;;;;
2022/02/08 05:56:48;;;;;;;0;0;;;;;;;0;0;0;;;;
2022/02/08 05:57:50;;;;;;;0;0;;;;;;;0;0;0;;;;
2022/02/08 05:58:51;;;;;;;0;0;;;;;;;0;0;0;;;;
2022/02/08 05:59:52;;;;;;;0;0;;;;;;;0;0;0;;;;
2022/02/08 06:00:53;;;;;;;0;0;;;;;;;0;0;0;;;;
2022/02/08 06:01:54;;;;;;;0;0;;;;;;;0;0;0;;;;
2022/02/08 06:02:55;;;;;;;0;0;;;;;;;0;0;0;;;;
2022/02/08 06:03:59;;;;;;;0;0;;;;;;;0;0;0;;;;
2022/02/08 06:04:59;;;;;;;0;0;;;;;;;0;0;0;;;;
2022/02/08 06:06:00;;;;;;;0;0;;;;;;;0;0;0;;;;
2022/02/08 06:07:00;;;;;;;0;0;;;;;;;0;0;0;;;;
2022/02/08 06:08:01;;;;;;;0;0;;;;;;;0;0;0;;;;
2022/02/08 06:09:01;;;;;;;0;0;;;;;;;0;0;0;;;;
2022/02/08 06:10:02;;;;;;;0;0;;;;;;;0;0;0;;;;
2022/02/08 06:11:13;;;;;;;0;0;;;;;;;0;0;0;;;;
2022/02/08 06:12:14;;;;;;;0;0;;;;;;;0;0;0;;;;
2022/02/08 06:13:14;;;;;;;0;0;;;;;;;0;0;0;;;;
2022/02/08 06:14:24;;;;;;;0;0;;;;;;;0;0;0;;;;
2022/02/08 06:15:25;;;;;;;0;0;;;;;;;0;0;0;;;;
2022/02/08 06:16:26;;;;;;;0;0;;;;;;;0;0;0;;;;
2022/02/08 06:17:26;;;;;;;0;0;;;;;;;0;0;0;;;;
2022/02/08 06:18:27;;;;;;;0;0;;;;;;;0;0;0;;;;
2022/02/08 06:19:28;;;;;;;0;0;;;;;;;0;0;0;;;;
2022/02/08 06:20:28;;;;;;;0;0;;;;;;;0;0;0;;;;
2022/02/08 06:21:29;;;;;;;0;0;;;;;;;0;0;0;;;;
2022/02/08 06:22:29;;;;;;;0;0;;;;;;;0;0;0;;;;
2022/02/08 06:23:30;;;;;;;0;0;;;;;;;0;0;0;;;;
2022/02/08 06:24:30;;;;;;;0;0;;;;;;;0;0;0;;;;
2022/02/08 06:25:31;;;;;;;0;0;;;;;;;0;0;0;;;;
2022/02/08 06:26:32;;;;;;;0;0;;;;;;;0;0;0;;;;
2022/02/08 06:27:32;;;;;;;0;0;;;;;;;0;0;0;;;;
2022/02/08 06:28:33;;;;;;;0;0;;;;;;;0;0;0;;;;
2022/02/08 06:29:33;;;;;;;0;0;;;;;;;0;0;0;;;;
2022/02/08 06:30:34;;;;;;;0;0;;;;;;;0;0;0;;;;
2022/02/08 06:31:34;;;;;;;0;0;;;;;;;0;0;0;;;;
2022/02/08 06:32:35;;;;;;;0;0;;;;;;;0;0;0;;;;
2022/02/08 06:33:36;;;;;;;0;0;;;;;;;0;0;0;;;;
2022/02/08 06:34:36;;;;;;;0;0;;;;;;;0;0;0;;;;
2022/02/08 06:35:37;;;;;;;0;0;;;;;;;0;0;0;;;;
2022/02/08 06:36:37;;;;;;;0;0;;;;;;;0;0;0;;;;
2022/02/08 06:37:40;;;;;;;0;0;;;;;;;0;0;0;;;;
2022/02/08 06:38:40;;;;;;;0;0;;;;;;;0;0;0;;;;
2022/02/08 06:39:41;;;;;;;0;0;;;;;;;0;0;0;;;;
2022/02/08 06:40:43;;;;;;;0;0;;;;;;;0;0;0;;;;
2022/02/08 06:41:44;;;;;;;0;0;;;;;;;0;0;0;;;;
2022/02/08 06:42:45;;;;;;;0;0;;;;;;;0;0;0;;;;
2022/02/08 06:43:47;;;;;;;0;0;;;;;;;0;0;0;;;;
2022/02/08 06:44:47;;;;;;;0;0;;;;;;;0;0;0;;;;
2022/02/08 06:45:48;;;;;;;0;0;;;;;;;0;0;0;;;;
2022/02/08 06:46:49;;;;;;;0;0;;;;;;;0;0;0;;;;
2022/02/08 06:47:51;;;;;;;0;0;;;;;;;0;0;0;;;;
2022/02/08 06:48:52;;;;;;;0;0;;;;;;;0;0;0;;;;
2022/02/08 06:49:53;;;;;;;0;0;;;;;;;0;0;0;;;;
2022/02/08 06:50:54;;;;;;;0;0;;;;;;;0;0;0;;;;
2022/02/08 06:51:54;;;;;;;0;0;;;;;;;0;0;0;;;;
2022/02/08 06:52:55;;;;;;;0;0;;;;;;;0;0;0;;;;
2022/02/08 06:53:55;;;;;;;0;0;;;;;;;0;0;0;;;;
2022/02/08 06:54:56;;;;;;;0;0;;;;;;;0;0;0;;;;
2022/02/08 06:55:59;;;;;;;0;0;;;;;;;0;0;0;;;;
2022/02/08 06:57:00;;;;;;;0;0;;;;;;;0;0;0;;;;
2022/02/08 06:58:03;;;;;;;0;0;;;;;;;0;0;0;;;;
2022/02/08 06:59:06;;;;;;;0;0;;;;;;;0;0;0;;;;
2022/02/08 07:00:11;;;;;;;0;0;;;;;;;0;0;0;;;;
2022/02/08 07:01:13;;;;;;;0;0;;;;;;;0;0;0;;;;
2022/02/08 07:02:14;;;;;;;0;0;;;;;;;0;0;0;;;;
2022/02/08 07:03:15;;;;;;;0;0;;;;;;;0;0;0;;;;
2022/02/08 07:04:17;;;;;;;0;0;;;;;;;0;0;0;;;;
2022/02/08 07:05:17;;;;;;;0;0;;;;;;;0;0;0;;;;
2022/02/08 07:06:18;;;;;;;0;0;;;;;;;0;0;0;;;;
2022/02/08 07:07:19;;;;;;;0;0;;;;;;;0;0;0;;;;
2022/02/08 07:08:19;;;;;;;0;0;;;;;;;0;0;0;;;;
2022/02/08 07:09:20;;;;;;;0;0;;;;;;;0;0;0;;;;
2022/02/08 07:10:20;;;;;;;0;0;;;;;;;0;0;0;;;;
2022/02/08 07:11:21;;;;;;;0;0;;;;;;;0;0;0;;;;
2022/02/08 07:12:22;;;;;;;0;0;;;;;;;0;0;0;;;;
2022/02/08 07:13:22;;;;;;;0;0;;;;;;;0;0;0;;;;
2022/02/08 07:14:28;;;;;;;0;0;;;;;;;0;0;0;;;;
2022/02/08 07:15:28;;;;;;;0;0;;;;;;;0;0;0;;;;
2022/02/08 07:16:29;;;;;;;0;0;;;;;;;0;0;0;;;;
2022/02/08 07:17:30;;;;;;;0;0;;;;;;;0;0;0;;;;
2022/02/08 07:18:30;;;;;;;0;0;;;;;;;0;0;0;;;;
2022/02/08 07:19:30;;;;;;;0;0;;;;;;;0;0;0;;;;
2022/02/08 07:20:32;;;;;;;0;0;;;;;;;0;0;0;;;;
2022/02/08 07:21:33;;;;;;;0;0;;;;;;;0;0;0;;;;
2022/02/08 07:22:33;;;;;;;0;0;;;;;;;0;0;0;;;;
2022/02/08 07:23:34;;;;;;;0;0;;;;;;;0;0;0;;;;
2022/02/08 07:24:35;;;;;;;0;0;;;;;;;0;0;0;;;;
2022/02/08 07:25:36;;;;;;;0;0;;;;;;;0;0;0;;;;
2022/02/08 07:26:36;;;;;;;0;0;;;;;;;0;0;0;;;;
2022/02/08 07:27:37;;;;;;;0;0;;;;;;;0;0;0;;;;
2022/02/08 07:28:42;;;;;;;0;0;;;;;;;0;0;0;;;;
2022/02/08 07:29:50;;;;;;;0;0;;;;;;;0;0;0;;;;
2022/02/08 07:30:58;;;;;;;0;0;;;;;;;0;0;0;;;;
2022/02/08 07:32:01;;;;;;;0;0;;;;;;;0;0;0;;;;
2022/02/08 07:33:02;;;;;;;0;0;;;;;;;0;0;0;;;;
2022/02/08 07:34:14;;;;;;;0;0;;;;;;;0;0;0;;;;
2022/02/08 07:35:25;;;;;;;0;0;;;;;;;0;0;0;;;;
2022/02/08 07:36:35;;;;;;;0;0;;;;;;;0;0;0;;;;
2022/02/08 07:37:47;;;;;;;0;0;;;;;;;0;0;0;;;;
2022/02/08 07:38:49;;;;;;;0;0;;;;;;;0;0;0;;;;
2022/02/08 07:39:54;;;;;;;0;0;;;;;;;0;0;0;;;;
2022/02/08 07:41:59;;;;;;;0;0;;;;;;;0;0;0;;;;
2022/02/08 07:42:59;;;;;;;0;0;;;;;;;0;0;0;;;;
2022/02/08 07:44:03;;;;;;;0;0;;;;;;;0;0;0;;;;
2022/02/08 07:45:05;;;;;;;0;0;;;;;;;0;0;0;;;;
2022/02/08 07:46:06;;;;;;;0;0;;;;;;;0;0;0;;;;
2022/02/08 07:47:07;;;;;;;0;0;;;;;;;0;0;0;;;;
2022/02/08 07:48:08;;;;;;;0;0;;;;;;;0;0;0;;;;
2022/02/08 07:49:09;;;;;;;0;0;;;;;;;0;0;0;;;;
2022/02/08 07:50:12;;;;;;;0;0;;;;;;;0;0;0;;;;
2022/02/08 07:51:14;;;;;;;0;0;;;;;;;0;0;0;;;;
2022/02/08 07:52:14;;;;;;;0;0;;;;;;;0;0;0;;;;
2022/02/08 07:53:15;;;;;;;0;0;;;;;;;0;0;0;;;;
2022/02/08 07:54:16;;;;;;;0;0;;;;;;;0;0;0;;;;
2022/02/08 07:55:16;;;;;;;0;0;;;;;;;0;0;0;;;;
2022/02/08 07:56:18;;;;;;;0;0;;;;;;;0;0;0;;;;
2022/02/08 07:57:18;;;;;;;0;0;;;;;;;0;0;0;;;;
2022/02/08 07:58:18;;;;;;;0;0;;;;;;;0;0;0;;;;
2022/02/08 07:59:19;;;;;;;0;0;;;;;;;0;0;0;;;;
2022/02/08 08:00:19;;;;;;;0;0;;;;;;;0;0;0;;;;
2022/02/08 08:01:20;;;;;;;0;0;;;;;;;0;0;0;;;;
2022/02/08 08:02:20;;;;;;;0;0;;;;;;;0;0;0;;;;
2022/02/08 08:03:21;;;;;;;0;0;;;;;;;0;0;0;;;;
2022/02/08 08:04:21;;;;;;;0;0;;;;;;;0;0;0;;;;
2022/02/08 08:05:22;;;;;;;0;0;;;;;;;0;0;0;;;;
2022/02/08 08:06:22;;;;;;;0;0;;;;;;;0;0;0;;;;
2022/02/08 08:07:24;;;;;;;0;0;;;;;;;0;0;0;;;;
2022/02/08 08:08:25;;;;;;;0;0;;;;;;;0;0;0;;;;
2022/02/08 08:09:25;;;;;;;0;0;;;;;;;0;0;0;;;;
2022/02/08 08:10:30;;;;;;;0;0;;;;;;;0;0;0;;;;
2022/02/08 08:11:36;;;;;;;0;0;;;;;;;0;0;0;;;;
2022/02/08 08:12:38;;;;;;;0;0;;;;;;;0;0;0;;;;
2022/02/08 08:13:41;;;;;;;0;0;;;;;;;0;0;0;;;;
2022/02/08 08:14:44;;;;;;;0;0;;;;;;;0;0;0;;;;
2022/02/08 08:15:49;;;;;;;0;0;;;;;;;0;0;0;;;;
2022/02/08 08:16:54;;;;;;;0;0;;;;;;;0;0;0;;;;
2022/02/08 08:17:58;;;;;;;0;0;;;;;;;0;0;0;;;;
2022/02/08 08:19:02;;;;;;;0;0;;;;;;;0;0;0;;;;
2022/02/08 08:20:03;;;;;;;0;0;;;;;;;0;0;0;;;;
2022/02/08 08:21:04;;;;;;;0;0;;;;;;;0;0;0;;;;
2022/02/08 08:22:05;;;;;;;0;0;;;;;;;0;0;0;;;;
2022/02/08 08:23:06;;;;;;;0;0;;;;;;;0;0;0;;;;
2022/02/08 08:24:08;;;;;;;0;0;;;;;;;0;0;0;;;;
2022/02/08 08:25:09;;;;;;;0;0;;;;;;;0;0;0;;;;
2022/02/08 08:26:09;;;;;;;0;0;;;;;;;0;0;0;;;;
2022/02/08 08:27:10;;;;;;;0;0;;;;;;;0;0;0;;;;
2022/02/08 08:28:11;;;;;;;0;0;;;;;;;0;0;0;;;;
2022/02/08 08:29:11;;;;;;;0;0;;;;;;;0;0;0;;;;
2022/02/08 08:30:12;;;;;;;0;0;;;;;;;0;0;0;;;;
2022/02/08 08:31:13;;;;;;;0;0;;;;;;;0;0;0;;;;
2022/02/08 08:32:14;;;;;;;0;0;;;;;;;0;0;0;;;;
2022/02/08 08:33:14;;;;;;;0;0;;;;;;;0;0;0;;;;
2022/02/08 08:34:15;;;;;;;0;0;;;;;;;0;0;0;;;;
2022/02/08 08:35:20;;;;;;;0;0;;;;;;;0;0;0;;;;
2022/02/08 08:36:22;;;;;;;0;0;;;;;;;0;0;0;;;;
2022/02/08 08:37:22;;;;;;;0;0;;;;;;;0;0;0;;;;
2022/02/08 08:38:24;;;;;;;0;0;;;;;;;0;0;0;;;;
2022/02/08 08:39:29;;;;;;;0;0;;;;;;;0;0;0;;;;
2022/02/08 08:40:44;;;;;;;0;0;;;;;;;0;0;0;;;;
2022/02/08 08:41:49;;;;;;;0;0;;;;;;;0;0;0;;;;
2022/02/08 08:43:02;;;;;;;0;0;;;;;;;0;0;0;;;;
2022/02/08 08:44:33;;;;;;;0;0;;;;;;;0;0;0;;;;
2022/02/08 08:50:56;;;;;;;0;0;;;;;;;0;0;0;;;;
2022/02/08 08:51:57;;;;;;;0;0;;;;;;;0;0;0;;;;
2022/02/08 08:52:58;;;;;;;0;0;;;;;;;0;0;0;;;;
2022/02/08 08:53:59;;;;;;;0;0;;;;;;;0;0;0;;;;
2022/02/08 08:55:00;;;;;;;0;0;;;;;;;0;0;0;;;;
2022/02/08 08:56:01;;;;;;;0;0;;;;;;;0;0;0;;;;
2022/02/08 08:57:02;;;;;;;0;0;;;;;;;0;0;0;;;;
2022/02/08 08:58:03;;;;;;;0;0;;;;;;;0;0;0;;;;
2022/02/08 08:59:03;;;;;;;0;0;;;;;;;0;0;0;;;;
2022/02/08 09:00:05;;;;;;;0;0;;;;;;;0;0;0;;;;
2022/02/08 09:01:09;;;;;;;0;0;;;;;;;0;0;0;;;;
2022/02/08 09:02:11;;;;;;;0;0;;;;;;;0;0;0;;;;
2022/02/08 09:03:11;;;;;;;0;0;;;;;;;0;0;0;;;;
2022/02/08 09:04:12;;;;;;;0;0;;;;;;;0;0;0;;;;
2022/02/08 09:05:14;;;;;;;0;0;;;;;;;0;0;0;;;;
2022/02/08 09:06:15;;;;;;;0;0;;;;;;;0;0;0;;;;
2022/02/08 09:07:16;;;;;;;0;0;;;;;;;0;0;0;;;;
2022/02/08 09:08:16;;;;;;;0;0;;;;;;;0;0;0;;;;
2022/02/08 09:09:20;;;;;;;0;0;;;;;;;0;0;0;;;;
2022/02/08 09:36:24;;;;;;;1.8;1;;;;;;;7.73;80.95117;96587.39;;;;
2022/02/08 09:37:26;;;;;;;1.8;1;;;;;;;7.73;80.95117;96587.39;;;;
2022/02/08 09:38:29;;;;;;;1.8;1;;;;;;;7.73;80.95117;96587.39;;;;
2022/02/08 09:39:30;;;;;;;1.8;1;;;;;;;7.73;80.95117;96587.39;;;;
2022/02/08 09:40:31;;;;;;;1.8;1;;;;;;;7.73;80.95117;96587.39;;;;
2022/02/08 09:41:32;;;;;;;1.8;1;;;;;;;7.73;80.95117;96587.39;;;;
2022/02/08 09:42:36;;;;;;;1.8;1;;;;;;;7.73;80.95117;96587.39;;;;
2022/02/08 09:43:36;;;;;;;1.8;1;;;;;;;7.73;80.95117;96587.39;;;;
2022/02/08 09:44:38;;;;;;;1.8;1;;;;;;;7.73;80.95117;96587.39;;;;
2022/02/08 09:45:40;;;;;;;1.8;1;;;;;;;7.73;80.95117;96587.39;;;;
2022/02/08 09:46:43;;;;;;;1.8;1;;;;;;;7.73;80.95117;96587.39;;;;
2022/02/08 09:47:52;;;;;;;1.8;1;;;;;;;7.73;80.95117;96587.39;;;;
2022/02/08 09:48:57;;;;;;;1.8;1;;;;;;;7.73;80.95117;96587.39;;;;
2022/02/08 09:50:06;;;;;;;1.8;1;;;;;;;7.73;80.95117;96587.39;;;;
2022/02/08 09:51:07;;;;;;;1.8;1;;;;;;;7.73;80.95117;96587.39;;;;
2022/02/08 09:52:08;;;;;;;1.8;1;;;;;;;7.73;80.95117;96587.39;;;;
2022/02/08 09:53:13;;;;;;;1.8;1;;;;;;;7.73;80.95117;96587.39;;;;
2022/02/08 09:54:14;;;;;;;1.8;1;;;;;;;7.73;80.95117;96587.39;;;;
2022/02/08 09:55:15;;;;;;;1.8;1;;;;;;;7.73;80.95117;96587.39;;;;